sensor_id;sensor_type;location;lat;lon;timestamp;P1;durP1;ratioP1;P2;durP2;ratioP2
61739;SDS011;47645;45.288;12.038;2023-08-17T00:01:15;7.1;;;6.4;;
61739;SDS011;47645;45.288;12.038;2023-08-17T00:11:16;7.4;;;6.7;;
61739;SDS011;47645;45.288;12.038;2023-08-17T00:21:18;7.8;;;6.4;;
61739;SDS011;47645;45.288;12.038;2023-08-17T00:31:19;7.1;;;6.3;;
61739;SDS011;47645;45.288;12.038;2023-08-17T00:41:21;9.0;;;8.1;;
61739;SDS011;47645;45.288;12.038;2023-08-17T00:51:24;9.4;;;7.7;;
61739;SDS011;47645;45.288;12.038;2023-08-17T01:01:24;9.7;;;7.8;;
61739;SDS011;47645;45.288;12.038;2023-08-17T01:11:26;8.8;;;7.6;;
61739;SDS011;47645;45.288;12.038;2023-08-17T01:21:29;7.8;;;6.6;;
61739;SDS011;47645;45.288;12.038;2023-08-17T01:31:32;7.1;;;5.7;;
61739;SDS011;47645;45.288;12.038;2023-08-17T01:41:30;8.7;;;7.8;;
61739;SDS011;47645;45.288;12.038;2023-08-17T01:51:31;7.5;;;6.5;;
61739;SDS011;47645;45.288;12.038;2023-08-17T02:01:33;8.8;;;7.9;;
61739;SDS011;47645;45.288;12.038;2023-08-17T02:11:34;11.1;;;8.4;;
61739;SDS011;47645;45.288;12.038;2023-08-17T02:21:36;9.7;;;7.7;;
61739;SDS011;47645;45.288;12.038;2023-08-17T02:31:37;9.3;;;7.9;;
61739;SDS011;47645;45.288;12.038;2023-08-17T02:41:39;11.2;;;8.3;;
61739;SDS011;47645;45.288;12.038;2023-08-17T02:51:40;9.4;;;8.4;;
61739;SDS011;47645;45.288;12.038;2023-08-17T03:01:42;10.0;;;8.9;;
61739;SDS011;47645;45.288;12.038;2023-08-17T03:11:43;9.3;;;8.1;;
61739;SDS011;47645;45.288;12.038;2023-08-17T03:21:44;12.2;;;9.7;;
61739;SDS011;47645;45.288;12.038;2023-08-17T03:31:46;11.7;;;9.1;;
61739;SDS011;47645;45.288;12.038;2023-08-17T03:41:47;12.0;;;9.8;;
61739;SDS011;47645;45.288;12.038;2023-08-17T03:51:48;11.9;;;9.9;;
61739;SDS011;47645;45.288;12.038;2023-08-17T04:01:50;11.0;;;9.9;;
61739;SDS011;47645;45.288;12.038;2023-08-17T04:11:51;12.4;;;9.5;;
61739;SDS011;47645;45.288;12.038;2023-08-17T04:21:53;13.0;;;10.0;;
61739;SDS011;47645;45.288;12.038;2023-08-17T04:31:54;10.8;;;9.6;;
61739;SDS011;47645;45.288;12.038;2023-08-17T04:41:55;12.6;;;9.8;;
61739;SDS011;47645;45.288;12.038;2023-08-17T04:51:57;12.6;;;9.7;;
61739;SDS011;47645;45.288;12.038;2023-08-17T05:01:58;11.7;;;10.5;;
61739;SDS011;47645;45.288;12.038;2023-08-17T05:12:00;12.6;;;11.1;;
61739;SDS011;47645;45.288;12.038;2023-08-17T05:22:01;11.6;;;10.4;;
61739;SDS011;47645;45.288;12.038;2023-08-17T05:32:03;12.5;;;10.4;;
61739;SDS011;47645;45.288;12.038;2023-08-17T05:42:04;11.6;;;10.4;;
61739;SDS011;47645;45.288;12.038;2023-08-17T05:52:06;12.4;;;11.2;;
61739;SDS011;47645;45.288;12.038;2023-08-17T06:02:07;13.1;;;10.3;;
61739;SDS011;47645;45.288;12.038;2023-08-17T06:12:08;10.1;;;8.5;;
61739;SDS011;47645;45.288;12.038;2023-08-17T06:22:10;12.7;;;8.7;;
61739;SDS011;47645;45.288;12.038;2023-08-17T06:32:11;10.0;;;9.0;;
61739;SDS011;47645;45.288;12.038;2023-08-17T06:42:13;11.3;;;9.0;;
61739;SDS011;47645;45.288;12.038;2023-08-17T06:52:14;9.4;;;8.5;;
61739;SDS011;47645;45.288;12.038;2023-08-17T07:02:16;10.2;;;9.2;;
61739;SDS011;47645;45.288;12.038;2023-08-17T07:12:17;12.6;;;10.4;;
61739;SDS011;47645;45.288;12.038;2023-08-17T07:22:19;10.0;;;9.0;;
61739;SDS011;47645;45.288;12.038;2023-08-17T07:32:21;11.3;;;8.9;;
61739;SDS011;47645;45.288;12.038;2023-08-17T07:42:22;11.3;;;9.1;;
61739;SDS011;47645;45.288;12.038;2023-08-17T07:52:23;12.6;;;8.7;;
61739;SDS011;47645;45.288;12.038;2023-08-17T08:02:25;11.1;;;8.3;;
61739;SDS011;47645;45.288;12.038;2023-08-17T08:12:26;9.5;;;8.0;;
61739;SDS011;47645;45.288;12.038;2023-08-17T08:22:28;7.7;;;6.4;;
61739;SDS011;47645;45.288;12.038;2023-08-17T08:32:29;9.2;;;6.9;;
61739;SDS011;47645;45.288;12.038;2023-08-17T08:42:31;7.3;;;6.5;;
61739;SDS011;47645;45.288;12.038;2023-08-17T08:52:33;10.0;;;6.8;;
61739;SDS011;47645;45.288;12.038;2023-08-17T09:02:34;6.6;;;5.9;;
61739;SDS011;47645;45.288;12.038;2023-08-17T09:12:36;8.6;;;6.4;;
61739;SDS011;47645;45.288;12.038;2023-08-17T09:22:38;7.9;;;7.1;;
61739;SDS011;47645;45.288;12.038;2023-08-17T09:32:39;6.9;;;5.6;;
61739;SDS011;47645;45.288;12.038;2023-08-17T09:42:41;7.8;;;6.1;;
61739;SDS011;47645;45.288;12.038;2023-08-17T09:52:42;7.7;;;5.9;;
61739;SDS011;47645;45.288;12.038;2023-08-17T10:02:44;5.5;;;5.0;;
61739;SDS011;47645;45.288;12.038;2023-08-17T10:12:48;7.8;;;5.5;;
61739;SDS011;47645;45.288;12.038;2023-08-17T10:22:48;6.7;;;5.4;;
61739;SDS011;47645;45.288;12.038;2023-08-17T10:32:50;5.8;;;5.0;;
61739;SDS011;47645;45.288;12.038;2023-08-17T10:42:53;6.4;;;5.1;;
61739;SDS011;47645;45.288;12.038;2023-08-17T10:52:53;6.3;;;4.6;;
61739;SDS011;47645;45.288;12.038;2023-08-17T11:02:56;6.0;;;4.5;;
61739;SDS011;47645;45.288;12.038;2023-08-17T11:13:00;4.6;;;4.1;;
61739;SDS011;47645;45.288;12.038;2023-08-17T11:23:00;5.9;;;5.1;;
61739;SDS011;47645;45.288;12.038;2023-08-17T11:33:02;5.8;;;4.4;;
61739;SDS011;47645;45.288;12.038;2023-08-17T11:43:04;4.9;;;4.4;;
61739;SDS011;47645;45.288;12.038;2023-08-17T11:53:06;6.6;;;4.7;;
61739;SDS011;47645;45.288;12.038;2023-08-17T12:03:08;6.3;;;4.3;;
61739;SDS011;47645;45.288;12.038;2023-08-17T12:13:11;8.7;;;4.6;;
61739;SDS011;47645;45.288;12.038;2023-08-17T12:23:13;6.2;;;4.2;;
61739;SDS011;47645;45.288;12.038;2023-08-17T12:33:14;6.0;;;4.4;;
61739;SDS011;47645;45.288;12.038;2023-08-17T12:43:16;5.5;;;4.5;;
61739;SDS011;47645;45.288;12.038;2023-08-17T12:53:19;5.0;;;3.8;;
61739;SDS011;47645;45.288;12.038;2023-08-17T13:03:21;6.1;;;3.9;;
61739;SDS011;47645;45.288;12.038;2023-08-17T13:13:23;5.7;;;4.2;;
61739;SDS011;47645;45.288;12.038;2023-08-17T13:23:25;5.4;;;4.1;;
61739;SDS011;47645;45.288;12.038;2023-08-17T13:33:28;5.5;;;3.8;;
61739;SDS011;47645;45.288;12.038;2023-08-17T13:43:30;5.8;;;4.6;;
61739;SDS011;47645;45.288;12.038;2023-08-17T13:53:32;5.1;;;3.8;;
61739;SDS011;47645;45.288;12.038;2023-08-17T14:03:34;5.2;;;4.2;;
61739;SDS011;47645;45.288;12.038;2023-08-17T14:13:36;9.0;;;7.9;;
61739;SDS011;47645;45.288;12.038;2023-08-17T14:23:39;5.8;;;4.0;;
61739;SDS011;47645;45.288;12.038;2023-08-17T14:33:41;6.0;;;4.0;;
61739;SDS011;47645;45.288;12.038;2023-08-17T14:43:43;8.0;;;4.9;;
61739;SDS011;47645;45.288;12.038;2023-08-17T14:53:45;5.5;;;4.7;;
61739;SDS011;47645;45.288;12.038;2023-08-17T15:03:47;8.0;;;4.5;;
61739;SDS011;47645;45.288;12.038;2023-08-17T15:13:50;8.6;;;4.6;;
61739;SDS011;47645;45.288;12.038;2023-08-17T15:23:53;7.0;;;4.6;;
61739;SDS011;47645;45.288;12.038;2023-08-17T15:33:54;5.7;;;4.3;;
61739;SDS011;47645;45.288;12.038;2023-08-17T15:43:56;7.0;;;4.7;;
61739;SDS011;47645;45.288;12.038;2023-08-17T15:53:58;6.8;;;4.7;;
61739;SDS011;47645;45.288;12.038;2023-08-17T16:04:00;6.5;;;4.7;;
61739;SDS011;47645;45.288;12.038;2023-08-17T16:14:03;7.3;;;4.0;;
61739;SDS011;47645;45.288;12.038;2023-08-17T16:24:04;6.6;;;4.4;;
61739;SDS011;47645;45.288;12.038;2023-08-17T16:34:06;5.4;;;4.4;;
61739;SDS011;47645;45.288;12.038;2023-08-17T16:44:08;6.4;;;4.1;;
61739;SDS011;47645;45.288;12.038;2023-08-17T16:54:11;5.5;;;4.3;;
61739;SDS011;47645;45.288;12.038;2023-08-17T17:04:12;6.5;;;4.7;;
61739;SDS011;47645;45.288;12.038;2023-08-17T17:14:14;7.1;;;5.6;;
61739;SDS011;47645;45.288;12.038;2023-08-17T17:24:16;6.1;;;4.8;;
61739;SDS011;47645;45.288;12.038;2023-08-17T17:34:18;7.9;;;4.6;;
61739;SDS011;47645;45.288;12.038;2023-08-17T17:44:19;8.2;;;5.3;;
61739;SDS011;47645;45.288;12.038;2023-08-17T17:54:21;8.1;;;5.1;;
61739;SDS011;47645;45.288;12.038;2023-08-17T18:04:23;7.8;;;6.6;;
61739;SDS011;47645;45.288;12.038;2023-08-17T18:14:25;8.6;;;6.8;;
61739;SDS011;47645;45.288;12.038;2023-08-17T18:24:27;7.4;;;5.8;;
61739;SDS011;47645;45.288;12.038;2023-08-17T18:34:28;6.7;;;5.6;;
61739;SDS011;47645;45.288;12.038;2023-08-17T18:44:30;8.3;;;6.2;;
61739;SDS011;47645;45.288;12.038;2023-08-17T18:54:32;7.5;;;6.0;;
61739;SDS011;47645;45.288;12.038;2023-08-17T19:04:34;6.6;;;5.7;;
61739;SDS011;47645;45.288;12.038;2023-08-17T19:14:35;6.7;;;5.7;;
61739;SDS011;47645;45.288;12.038;2023-08-17T19:24:37;6.6;;;5.5;;
61739;SDS011;47645;45.288;12.038;2023-08-17T19:34:39;7.6;;;6.1;;
61739;SDS011;47645;45.288;12.038;2023-08-17T19:44:40;6.1;;;5.5;;
61739;SDS011;47645;45.288;12.038;2023-08-17T19:54:47;7.2;;;5.4;;
61739;SDS011;47645;45.288;12.038;2023-08-17T20:04:44;7.0;;;5.4;;
61739;SDS011;47645;45.288;12.038;2023-08-17T20:14:46;7.4;;;5.9;;
61739;SDS011;47645;45.288;12.038;2023-08-17T20:24:47;8.7;;;7.7;;
61739;SDS011;47645;45.288;12.038;2023-08-17T20:34:49;7.5;;;5.8;;
61739;SDS011;47645;45.288;12.038;2023-08-17T20:49:53;8.6;;;7.2;;
61739;SDS011;47645;45.288;12.038;2023-08-17T20:54:52;9.8;;;7.7;;
61739;SDS011;47645;45.288;12.038;2023-08-17T21:04:54;11.0;;;8.2;;
61739;SDS011;47645;45.288;12.038;2023-08-17T21:14:57;16.9;;;11.4;;
61739;SDS011;47645;45.288;12.038;2023-08-17T21:24:57;15.5;;;11.3;;
61739;SDS011;47645;45.288;12.038;2023-08-17T21:34:58;13.1;;;10.4;;
61739;SDS011;47645;45.288;12.038;2023-08-17T21:45:00;18.1;;;11.1;;
61739;SDS011;47645;45.288;12.038;2023-08-17T21:55:02;13.3;;;11.9;;
61739;SDS011;47645;45.288;12.038;2023-08-17T22:05:04;18.8;;;13.4;;
61739;SDS011;47645;45.288;12.038;2023-08-17T22:10:05;17.4;;;12.2;;
61739;SDS011;47645;45.288;12.038;2023-08-17T22:20:07;13.7;;;12.3;;
61739;SDS011;47645;45.288;12.038;2023-08-17T22:30:07;11.9;;;10.5;;
61739;SDS011;47645;45.288;12.038;2023-08-17T22:40:09;14.6;;;10.3;;
61739;SDS011;47645;45.288;12.038;2023-08-17T22:50:10;12.4;;;10.9;;
61739;SDS011;47645;45.288;12.038;2023-08-17T23:00:12;12.0;;;7.8;;
61739;SDS011;47645;45.288;12.038;2023-08-17T23:10:13;10.0;;;7.3;;
61739;SDS011;47645;45.288;12.038;2023-08-17T23:20:15;11.6;;;7.3;;
61739;SDS011;47645;45.288;12.038;2023-08-17T23:30:17;8.0;;;6.9;;
61739;SDS011;47645;45.288;12.038;2023-08-17T23:40:18;10.2;;;6.9;;
61739;SDS011;47645;45.288;12.038;2023-08-17T23:50:20;7.3;;;6.4;;
